Weather History for Pittsburg, KS

Change the Weather History Date:

Friday, March 8, 2013

  Actual Average (KJLN) Record (KJLN)
Temperature  
Mean Temperature 52 °F 46 °F  
Max Temperature 64 °F 57 °F 80 °F (1992)
Min Temperature 41 °F 36 °F 4 °F (1996)
Degree Days  
Heating Degree Days 12 19  
Month to date heating degree days 159  
Since 1 July heating degree days 3413  
Cooling Degree Days 0 0  
Month to date cooling degree days 0  
Year to date cooling degree days 1  
Growing Degree Days 2 (Base 50)    
Moisture  
Dew Point 36 °F    
Average Humidity 52    
Maximum Humidity 67    
Minimum Humidity 39    
Precipitation  
Precipitation 0.00 in 0.10 in 1.39 in (1999)
Month to date precipitation 0.83  
Year to date precipitation 5.18  
Sea Level Pressure  
Sea Level Pressure 30.12 in    
Wind  
Wind Speed 10 mph (SSE)    
Max Wind Speed 21 mph    
Max Gust Speed 26 mph    
Visibility 10 miles    
Events      
T = Trace of Precipitation, MM = Missing Value Source: NWS Daily Summary

Daily Weather History Graph

Daily Weather History Graph

Search for Another Location

Airport:

Trip Planner

Search our weather history database for the weather conditions in past years. The results will help you decide how hot, cold, wet, or windy it might be!

Date:

Astronomy

Mar. 08, 2013 Rise Set
Actual Time 6:39 AM CST 6:19 PM CST
Civil Twilight 6:13 AM CST 6:45 PM CST
Nautical Twilight 5:43 AM CST 7:16 PM CST
Astronomical Twilight 5:13 AM CST 7:46 PM CST
Moon 4:21 AM CST (3/8) 3:18 PM CST (3/8)
Length of Visible Light 12h 32m
Length of Day
11h 40m
Waning Crescent, 11% of the Moon is Illuminated
Mar 8
Waning Crescent
Mar 11
New
Mar 19
First Quarter
Mar 27
Full
Apr 2
Last Quarter

Hourly Weather History & Observations

Time (CST) Temp. Windchill Dew Point Humidity Pressure Visibility Wind Dir Wind Speed Gust Speed Precip Events Conditions
12:15 AM 44.1 °F 40.1 °F 29.1 °F 56% 30.18 in 10.0 mi SE 6.9 mph - N/A   Clear
12:35 AM 43.7 °F 40.3 °F 29.1 °F 57% 30.18 in 10.0 mi SE 5.8 mph - N/A   Clear
12:55 AM 43.2 °F 39.7 °F 29.1 °F 58% 30.18 in 10.0 mi SE 5.8 mph - N/A   Clear
1:15 AM 43.0 °F 39.5 °F 29.5 °F 59% 30.19 in 10.0 mi SE 5.8 mph - N/A   Clear
1:35 AM 43.0 °F 39.5 °F 29.7 °F 59% 30.19 in 10.0 mi SE 5.8 mph - N/A   Clear
1:55 AM 43.0 °F 39.5 °F 29.7 °F 59% 30.19 in 10.0 mi SE 5.8 mph - N/A   Clear
2:15 AM 43.0 °F 38.2 °F 30.0 °F 60% 30.19 in 10.0 mi SE 8.1 mph - N/A   Clear
2:35 AM 43.0 °F 38.8 °F 30.2 °F 61% 30.19 in 10.0 mi SE 6.9 mph - N/A   Clear
2:55 AM 43.0 °F 38.2 °F 30.6 °F 62% 30.18 in 10.0 mi SE 8.1 mph - N/A   Clear
3:15 AM 43.0 °F 38.2 °F 31.1 °F 63% 30.19 in 10.0 mi SE 8.1 mph - N/A   Clear
3:35 AM 43.0 °F 38.8 °F 31.1 °F 63% 30.17 in 10.0 mi SE 6.9 mph - N/A   Clear
3:55 AM 42.8 °F 38.0 °F 31.3 °F 64% 30.17 in 10.0 mi SE 8.1 mph - N/A   Clear
4:15 AM 42.1 °F 37.1 °F 31.3 °F 66% 30.18 in 10.0 mi SE 8.1 mph - N/A   Clear
4:35 AM 41.9 °F 37.5 °F 31.5 °F 66% 30.18 in 10.0 mi SE 6.9 mph - N/A   Clear
4:55 AM 42.1 °F 36.6 °F 31.6 °F 67% 30.19 in 10.0 mi SE 9.2 mph - N/A   Clear
5:15 AM 43.0 °F 36.8 °F 32.0 °F 65% 30.20 in 10.0 mi SE 11.5 mph - N/A   Clear
5:35 AM 43.0 °F 36.4 °F 32.0 °F 65% 30.20 in 10.0 mi SE 12.7 mph - N/A   Clear
5:55 AM 43.3 °F 37.2 °F 32.0 °F 64% 30.19 in 10.0 mi SSE 11.5 mph - N/A   Clear
6:15 AM 43.0 °F 36.4 °F 32.0 °F 65% 30.19 in 10.0 mi SE 12.7 mph - N/A   Clear
6:35 AM 43.0 °F 37.7 °F 32.0 °F 65% 30.19 in 10.0 mi SE 9.2 mph - N/A   Clear
6:55 AM 43.0 °F 37.7 °F 32.0 °F 65% 30.19 in 10.0 mi SSE 9.2 mph 16.1 mph N/A   Clear
7:15 AM 43.5 °F 37.5 °F 32.0 °F 64% 30.19 in 10.0 mi SSE 11.5 mph - N/A   Clear
7:35 AM 44.1 °F 38.1 °F 32.0 °F 63% 30.19 in 10.0 mi SE 11.5 mph - N/A   Clear
7:55 AM 44.8 °F 38.7 °F 32.2 °F 61% 30.19 in 10.0 mi SE 12.7 mph 16.1 mph N/A   Clear
8:15 AM 47.7 °F - 33.6 °F 58% 30.19 in 10.0 mi SSE 12.7 mph - N/A   Clear
8:55 AM 50.9 °F - 34.0 °F 52% 30.19 in 10.0 mi SSE 15.0 mph - N/A   Clear
9:15 AM 52.0 °F - 33.3 °F 49% 30.19 in 10.0 mi SSE 16.1 mph 21.9 mph N/A   Clear
9:35 AM 53.8 °F - 34.2 °F 47% 30.19 in 10.0 mi SSE 12.7 mph - N/A   Clear
9:55 AM 55.8 °F - 34.9 °F 45% 30.18 in 10.0 mi SSE 11.5 mph - N/A   Clear
10:15 AM 55.8 °F - 34.5 °F 45% 30.18 in 10.0 mi SSE 10.4 mph - N/A   Clear
10:35 AM 57.2 °F - 34.9 °F 43% 30.18 in 10.0 mi SSE 15.0 mph 18.4 mph N/A   Clear
10:55 AM 59.7 °F - 35.4 °F 40% 30.18 in 10.0 mi South 10.4 mph - N/A   Clear
11:15 AM 60.8 °F - 36.1 °F 40% 30.18 in 10.0 mi South 12.7 mph - N/A   Clear
11:35 AM 61.5 °F - 37.2 °F 41% 30.17 in 10.0 mi South 17.3 mph 24.2 mph N/A   Clear
11:55 AM 62.6 °F - 37.9 °F 40% 30.17 in 10.0 mi South 15.0 mph 25.3 mph N/A   Clear
12:15 PM 63.3 °F - 38.3 °F 40% 30.16 in 10.0 mi South 16.1 mph 20.7 mph N/A   Clear
12:35 PM 63.5 °F - 38.5 °F 40% 30.15 in 10.0 mi South 16.1 mph 23.0 mph N/A   Clear
12:55 PM 64.2 °F - 38.7 °F 39% 30.14 in 10.0 mi South 20.7 mph 26.5 mph N/A   Clear
1:15 PM 63.5 °F - 38.3 °F 39% 30.12 in 10.0 mi South 16.1 mph 26.5 mph N/A   Clear
1:35 PM 64.0 °F - 38.5 °F 39% 30.11 in 10.0 mi South 13.8 mph 24.2 mph N/A   Scattered Clouds
1:55 PM 63.7 °F - 38.3 °F 39% 30.09 in 10.0 mi South 12.7 mph 23.0 mph N/A   Scattered Clouds
2:15 PM 63.7 °F - 38.5 °F 39% 30.09 in 10.0 mi South 16.1 mph 19.6 mph N/A   Mostly Cloudy
2:35 PM 63.7 °F - 38.3 °F 39% 30.08 in 10.0 mi South 17.3 mph - N/A   Overcast
2:55 PM 63.3 °F - 38.3 °F 40% 30.08 in 10.0 mi South 12.7 mph - N/A   Overcast
3:15 PM 63.0 °F - 38.3 °F 40% 30.07 in 10.0 mi SSW 18.4 mph - N/A   Overcast
3:35 PM 62.1 °F - 38.1 °F 41% 30.07 in 10.0 mi SSW 12.7 mph - N/A   Overcast
3:55 PM 61.0 °F - 38.3 °F 43% 30.07 in 10.0 mi SSW 12.7 mph 18.4 mph N/A   Overcast
4:15 PM 60.8 °F - 38.1 °F 43% 30.07 in 10.0 mi SSW 13.8 mph - N/A   Overcast
4:35 PM 60.8 °F - 39.6 °F 46% 30.06 in 10.0 mi South 9.2 mph - N/A   Overcast
4:55 PM 60.8 °F - 38.7 °F 44% 30.06 in 10.0 mi South 6.9 mph - N/A   Overcast
5:15 PM 60.8 °F - 38.1 °F 43% 30.05 in 10.0 mi South 6.9 mph - N/A   Overcast
5:35 PM 60.8 °F - 37.6 °F 42% 30.07 in 10.0 mi SSW 8.1 mph - N/A   Overcast
5:55 PM 60.8 °F - 37.8 °F 42% 30.05 in 10.0 mi SSE 10.4 mph 23.0 mph N/A   Overcast
6:15 PM 60.8 °F - 37.4 °F 42% 30.06 in 10.0 mi South 8.1 mph - N/A   Overcast
6:35 PM 60.1 °F - 38.8 °F 45% 30.05 in 10.0 mi SSE 15.0 mph - N/A   Mostly Cloudy
6:55 PM 60.1 °F - 39.2 °F 46% 30.05 in 10.0 mi SE 5.8 mph - N/A   Overcast
7:15 PM 58.6 °F - 39.2 °F 48% 30.05 in 10.0 mi SE 6.9 mph - N/A   Overcast
7:35 PM 58.3 °F - 39.9 °F 50% 30.05 in 10.0 mi ESE 8.1 mph - N/A   Overcast
7:55 PM 57.7 °F - 40.3 °F 52% 30.05 in 10.0 mi SE 8.1 mph - N/A   Mostly Cloudy
8:15 PM 56.1 °F - 40.1 °F 55% 30.05 in 10.0 mi ESE 8.1 mph - N/A   Mostly Cloudy
8:35 PM 55.8 °F - 40.1 °F 56% 30.06 in 10.0 mi SE 9.2 mph - N/A   Mostly Cloudy
8:55 PM 55.8 °F - 38.3 °F 52% 30.05 in 10.0 mi SE 11.5 mph 17.3 mph N/A   Mostly Cloudy
9:15 PM 55.8 °F - 36.9 °F 49% 30.05 in 10.0 mi SE 9.2 mph - N/A   Mostly Cloudy
9:35 PM 55.8 °F - 39.4 °F 54% 30.05 in 10.0 mi SSE 9.2 mph - N/A   Mostly Cloudy
9:55 PM 55.8 °F - 41.5 °F 59% 30.04 in 10.0 mi SSE 11.5 mph - N/A   Mostly Cloudy
10:15 PM 55.2 °F - 42.1 °F 61% 30.04 in 10.0 mi SSE 10.4 mph - N/A   Mostly Cloudy
10:35 PM 53.2 °F - 41.5 °F 65% 30.03 in 10.0 mi SE 6.9 mph - N/A   Mostly Cloudy
10:55 PM 53.2 °F - 41.7 °F 65% 30.03 in 10.0 mi SSE 10.4 mph - N/A   Overcast
11:15 PM 53.2 °F - 41.5 °F 65% 30.02 in 10.0 mi SSE 12.7 mph - N/A   Overcast
11:35 PM 53.2 °F - 41.0 °F 63% 30.00 in 10.0 mi SSE 9.2 mph - N/A   Overcast
11:55 PM 53.8 °F - 41.5 °F 63% 30.01 in 10.0 mi South 10.4 mph - N/A   Overcast